Time;durP1;ratioP1;P1;durP2;ratioP2;P2;SDS_P1;SDS_P2;PMS_P1;PMS_P2;Temp;Humidity;BMP_temperature;BMP_pressure;BME280_temperature;BME280_humidity;BME280_pressure;Samples;Min_cycle;Max_cycle;Signal;HPM_P1;HPM_P2
2023/02/12 00:01:20;;;;;;;13.17;4.97;;;6.70;99.90;;;;;;4984631;28;20205;-70
2023/02/12 00:03:47;;;;;;;6.60;4.47;;;6.70;99.90;;;;;;4987376;28;20292;-70
2023/02/12 00:06:14;;;;;;;8.30;4.20;;;6.70;99.90;;;;;;4983583;28;20237;-70
2023/02/12 00:08:40;;;;;;;10.57;4.73;;;6.70;99.90;;;;;;4978472;28;20197;-70
2023/02/12 00:11:16;;;;;;;8.27;4.80;;;6.70;99.90;;;;;;4986004;28;20213;-70
2023/02/12 00:13:43;;;;;;;6.63;4.07;;;6.70;99.90;;;;;;4981056;28;20312;-70
2023/02/12 00:16:15;;;;;;;6.13;4.17;;;6.80;99.90;;;;;;4988692;28;20281;-70
2023/02/12 00:18:42;;;;;;;10.57;4.23;;;6.80;99.90;;;;;;4981111;28;20623;-70
2023/02/12 00:21:09;;;;;;;5.87;3.80;;;6.80;99.90;;;;;;4983941;28;20212;-70
2023/02/12 00:23:38;;;;;;;6.57;4.47;;;6.80;99.90;;;;;;4981820;28;20208;-70
2023/02/12 00:26:11;;;;;;;7.43;4.30;;;6.90;99.90;;;;;;4984192;28;20276;-70
2023/02/12 00:28:37;;;;;;;7.43;4.17;;;6.90;99.90;;;;;;4979729;28;20200;-70
2023/02/12 00:31:23;;;;;;;8.47;4.23;;;6.80;99.90;;;;;;4976455;28;20713;-70
2023/02/12 00:33:49;;;;;;;7.77;4.33;;;6.80;99.90;;;;;;4979565;28;20271;-70
2023/02/12 00:36:22;;;;;;;7.83;4.60;;;6.80;99.90;;;;;;4979834;28;20767;-70
2023/02/12 00:38:52;;;;;;;10.47;4.77;;;6.90;99.90;;;;;;4978082;28;20196;-70
2023/02/12 00:41:19;;;;;;;6.53;4.50;;;6.90;99.90;;;;;;4998097;28;20318;-70
2023/02/12 00:43:46;;;;;;;6.03;4.73;;;6.90;99.90;;;;;;4983785;28;20249;-70
2023/02/12 00:46:12;;;;;;;8.20;5.00;;;6.90;99.90;;;;;;4981111;28;20736;-70
2023/02/12 00:48:39;;;;;;;8.57;5.10;;;6.80;99.90;;;;;;4982124;28;20189;-70
2023/02/12 00:51:06;;;;;;;9.97;5.00;;;6.80;99.90;;;;;;4977108;28;20308;-70
2023/02/12 00:53:32;;;;;;;6.27;4.27;;;6.80;99.90;;;;;;4986245;28;20236;-70
2023/02/12 00:56:02;;;;;;;6.13;4.50;;;6.80;99.90;;;;;;4979961;28;20205;-70
2023/02/12 00:58:28;;;;;;;9.07;4.80;;;6.90;99.90;;;;;;4979913;28;20833;-70
2023/02/12 01:00:55;;;;;;;6.13;4.73;;;6.80;99.90;;;;;;4979676;28;20202;-69
2023/02/12 01:03:25;;;;;;;7.20;4.77;;;6.90;99.90;;;;;;4985784;28;20211;-69
2023/02/12 01:05:52;;;;;;;5.63;4.57;;;6.90;99.90;;;;;;4981948;28;20289;-69
2023/02/12 01:08:18;;;;;;;7.23;4.77;;;7.00;99.90;;;;;;4980491;28;20194;-69
2023/02/12 01:10:45;;;;;;;6.43;4.40;;;7.00;99.90;;;;;;4980265;28;20208;-69
2023/02/12 01:13:14;;;;;;;6.97;4.03;;;7.00;99.90;;;;;;4993430;28;20949;-69
2023/02/12 01:15:41;;;;;;;6.10;4.70;;;7.00;99.90;;;;;;4981287;28;20209;-69
2023/02/12 01:18:08;;;;;;;8.80;4.43;;;6.90;99.90;;;;;;4979974;28;20194;-69
2023/02/12 01:20:34;;;;;;;12.40;4.60;;;6.90;99.90;;;;;;4981912;28;20189;-69
2023/02/12 01:23:05;;;;;;;6.00;4.17;;;6.90;99.90;;;;;;4981751;28;20214;-69
2023/02/12 01:25:32;;;;;;;6.50;4.50;;;6.90;99.90;;;;;;4978857;28;20821;-69
2023/02/12 01:27:58;;;;;;;5.27;3.90;;;6.90;99.90;;;;;;4994184;28;20555;-69
2023/02/12 01:30:24;;;;;;;8.33;4.63;;;6.90;99.90;;;;;;4978637;28;20275;-69
2023/02/12 01:32:51;;;;;;;7.30;4.30;;;6.90;99.90;;;;;;4975990;28;20233;-69
2023/02/12 01:35:17;;;;;;;6.07;4.40;;;6.90;99.90;;;;;;4982141;28;20181;-70
2023/02/12 01:37:44;;;;;;;6.67;4.37;;;6.90;99.90;;;;;;4981948;28;20213;-70
2023/02/12 01:40:14;;;;;;;6.73;4.37;;;6.90;99.90;;;;;;4994294;28;20305;-70
2023/02/12 01:42:41;;;;;;;7.10;4.50;;;6.90;99.90;;;;;;4977394;28;20201;-70
2023/02/12 01:45:46;;;;;;;8.70;4.50;;;6.90;99.90;;;;;;4993522;28;20224;-69
2023/02/12 01:48:16;;;;;;;6.67;4.53;;;6.90;99.90;;;;;;4979704;28;20291;-69
2023/02/12 01:50:46;;;;;;;6.37;4.43;;;6.90;99.90;;;;;;4972529;28;20193;-69
2023/02/12 01:53:18;;;;;;;5.30;3.87;;;6.90;99.90;;;;;;4976315;28;20574;-69
2023/02/12 01:55:51;;;;;;;6.53;5.07;;;6.90;99.90;;;;;;4976413;28;20320;-70
2023/02/12 01:58:19;;;;;;;6.70;4.70;;;7.00;99.90;;;;;;4979483;28;20201;-70
2023/02/12 02:00:46;;;;;;;7.13;4.23;;;7.00;99.90;;;;;;4978656;28;20204;-70
2023/02/12 02:03:12;;;;;;;7.13;4.47;;;6.90;99.90;;;;;;4977549;28;20213;-70
2023/02/12 02:06:06;;;;;;;6.30;4.00;;;6.90;99.90;;;;;;4977612;28;20540;-70
2023/02/12 02:08:33;;;;;;;8.27;4.77;;;6.90;99.90;;;;;;4978113;28;20226;-70
2023/02/12 02:11:00;;;;;;;8.27;4.73;;;6.90;99.90;;;;;;4979056;28;20229;-70
2023/02/12 02:16:25;;;;;;;7.03;4.20;;;6.80;99.90;;;;;;4979484;28;20193;-69
2023/02/12 02:18:58;;;;;;;5.57;4.10;;;6.90;99.90;;;;;;4992677;28;20205;-69
2023/02/12 02:22:06;;;;;;;7.97;4.17;;;7.00;99.90;;;;;;4982678;28;20730;-69
2023/02/12 02:24:50;;;;;;;8.10;4.87;;;7.00;99.90;;;;;;4978680;28;20217;-70
2023/02/12 02:27:29;;;;;;;6.80;4.93;;;7.00;99.90;;;;;;4979339;28;20200;-70
2023/02/12 02:30:20;;;;;;;5.43;4.10;;;7.00;99.90;;;;;;4976566;28;20197;-69
2023/02/12 02:33:21;;;;;;;8.77;4.70;;;7.00;99.90;;;;;;4979149;28;20201;-70
2023/02/12 02:36:28;;;;;;;8.43;4.30;;;6.90;99.90;;;;;;4976998;28;20194;-74
2023/02/12 02:39:00;;;;;;;6.67;4.53;;;6.90;99.90;;;;;;4962098;28;20591;-74
2023/02/12 02:41:48;;;;;;;5.17;3.87;;;6.90;99.90;;;;;;4983537;28;20185;-74
2023/02/12 02:44:33;;;;;;;8.07;4.53;;;6.90;99.90;;;;;;4984808;28;20264;-74
2023/02/12 02:47:06;;;;;;;6.67;4.03;;;6.90;99.90;;;;;;4996582;28;20345;-73
2023/02/12 02:49:42;;;;;;;5.43;3.87;;;6.90;99.90;;;;;;4967030;28;20280;-74
2023/02/12 02:52:23;;;;;;;6.63;4.50;;;6.80;99.90;;;;;;4982128;28;20267;-73
2023/02/12 02:54:56;;;;;;;5.97;3.97;;;6.80;99.90;;;;;;4979052;28;20293;-74
2023/02/12 02:57:35;;;;;;;6.07;4.40;;;6.70;99.90;;;;;;4984283;28;20566;-73
2023/02/12 03:00:21;;;;;;;7.00;3.70;;;6.70;99.90;;;;;;4982601;28;20188;-73
2023/02/12 03:03:25;;;;;;;7.47;4.10;;;6.70;99.90;;;;;;4980617;28;20220;-73
2023/02/12 03:05:59;;;;;;;7.07;4.17;;;6.60;99.90;;;;;;4974942;28;20209;-73
2023/02/12 03:08:38;;;;;;;9.20;4.43;;;6.30;99.90;;;;;;4982633;28;20323;-73
2023/02/12 03:11:24;;;;;;;6.57;3.67;;;6.00;99.90;;;;;;4981738;28;20284;-73
2023/02/12 03:14:13;;;;;;;6.13;4.17;;;5.80;99.90;;;;;;4982033;28;20211;-73
2023/02/12 03:17:07;;;;;;;6.43;3.97;;;5.70;99.90;;;;;;4977880;28;20193;-73
2023/02/12 03:19:50;;;;;;;7.07;4.50;;;5.50;99.90;;;;;;4980562;28;20292;-73
2023/02/12 03:22:33;;;;;;;6.80;4.43;;;5.50;99.90;;;;;;4995483;28;20200;-73
2023/02/12 03:25:13;;;;;;;8.43;4.73;;;5.50;99.90;;;;;;4986583;28;20824;-73
2023/02/12 03:28:00;;;;;;;7.20;4.47;;;5.50;99.90;;;;;;4981978;28;20256;-73
2023/02/12 03:30:44;;;;;;;5.53;4.07;;;5.40;99.90;;;;;;4978700;28;20302;-73
2023/02/12 03:33:29;;;;;;;4.87;4.07;;;5.30;99.90;;;;;;4982454;28;20220;-73
2023/02/12 03:36:18;;;;;;;6.93;4.20;;;5.20;99.90;;;;;;4980990;28;21780;-73
2023/02/12 03:38:52;;;;;;;7.10;4.40;;;5.10;99.90;;;;;;4981436;28;20202;-72
2023/02/12 03:41:36;;;;;;;7.70;4.80;;;4.90;99.90;;;;;;4980855;28;20228;-72
2023/02/12 03:44:33;;;;;;;6.07;4.30;;;4.80;99.90;;;;;;4983427;28;20213;-72
2023/02/12 03:47:19;;;;;;;9.10;4.90;;;4.50;99.90;;;;;;4978664;28;20209;-72
2023/02/12 03:50:31;;;;;;;7.70;4.90;;;4.60;99.90;;;;;;4979194;28;20192;-72
2023/02/12 03:52:57;;;;;;;5.93;4.37;;;4.50;99.90;;;;;;4992296;28;20282;-72
2023/02/12 03:55:24;;;;;;;7.33;4.83;;;4.40;99.90;;;;;;4979391;28;20197;-72
2023/02/12 03:58:00;;;;;;;7.63;4.53;;;4.20;99.90;;;;;;4979441;28;20213;-72
2023/02/12 04:00:26;;;;;;;5.13;4.17;;;4.10;99.90;;;;;;4977077;28;20224;-72
2023/02/12 04:02:54;;;;;;;7.07;4.57;;;3.90;99.90;;;;;;4982312;28;20970;-72
2023/02/12 04:05:27;;;;;;;6.23;4.73;;;3.80;99.90;;;;;;4982218;28;20209;-72
2023/02/12 04:07:57;;;;;;;8.83;5.00;;;3.60;99.90;;;;;;4982641;28;20630;-72
2023/02/12 04:10:49;;;;;;;11.27;5.80;;;3.60;99.90;;;;;;4982696;28;20200;-73
2023/02/12 04:13:44;;;;;;;8.37;5.90;;;3.40;99.90;;;;;;4983237;28;20548;-73
2023/02/12 04:16:13;;;;;;;9.67;5.97;;;3.10;99.90;;;;;;4960605;28;20671;-72
2023/02/12 04:18:48;;;;;;;8.73;6.10;;;3.00;99.90;;;;;;4979244;28;20185;-72
2023/02/12 04:21:32;;;;;;;9.03;6.83;;;3.00;99.90;;;;;;4978058;28;20829;-72
2023/02/12 04:24:48;;;;;;;15.10;7.80;;;2.90;99.90;;;;;;4978188;28;20256;-72
2023/02/12 04:27:28;;;;;;;15.20;8.77;;;2.70;99.90;;;;;;4946636;28;20220;-72
2023/02/12 04:30:10;;;;;;;18.73;9.43;;;2.70;99.90;;;;;;4978564;28;20191;-72
2023/02/12 04:32:57;;;;;;;18.03;11.73;;;2.70;99.90;;;;;;4978908;28;20182;-73
2023/02/12 04:35:53;;;;;;;18.93;10.73;;;2.50;99.90;;;;;;4981767;28;20193;-73
2023/02/12 04:38:36;;;;;;;22.97;11.00;;;2.50;99.90;;;;;;4974625;28;20198;-73
2023/02/12 04:41:06;;;;;;;17.53;10.73;;;2.50;99.90;;;;;;4979547;28;20193;-73
2023/02/12 04:43:35;;;;;;;19.20;10.93;;;2.50;99.90;;;;;;4980776;28;20213;-72
2023/02/12 04:46:04;;;;;;;17.13;7.70;;;2.50;99.90;;;;;;4990654;28;21086;-73
2023/02/12 04:48:31;;;;;;;8.77;6.23;;;2.50;99.90;;;;;;4981393;28;20618;-73
2023/02/12 04:50:58;;;;;;;11.93;7.27;;;2.60;99.90;;;;;;4978856;28;20434;-73
2023/02/12 04:53:24;;;;;;;11.60;7.90;;;2.60;99.90;;;;;;4960172;28;20241;-72
2023/02/12 04:55:50;;;;;;;18.50;10.00;;;2.60;99.90;;;;;;4982095;28;20571;-72
2023/02/12 04:58:18;;;;;;;18.83;9.67;;;2.50;99.90;;;;;;4980858;28;20263;-72
2023/02/12 05:00:44;;;;;;;15.27;9.13;;;2.50;99.90;;;;;;4976513;28;20284;-73
2023/02/12 05:03:10;;;;;;;13.70;7.80;;;2.60;99.90;;;;;;4984358;28;20221;-73
2023/02/12 05:05:36;;;;;;;15.00;9.57;;;2.60;99.90;;;;;;4979566;28;20766;-73
2023/02/12 05:08:03;;;;;;;26.17;13.07;;;2.60;99.90;;;;;;4980467;28;20244;-73
2023/02/12 05:10:31;;;;;;;34.70;18.23;;;2.50;99.90;;;;;;4981472;28;20240;-73
2023/02/12 05:12:58;;;;;;;29.00;15.73;;;2.60;99.90;;;;;;4979350;28;20228;-72
2023/02/12 05:15:24;;;;;;;18.53;10.87;;;2.70;99.90;;;;;;4982365;28;20205;-72
2023/02/12 05:17:50;;;;;;;22.83;14.20;;;2.70;99.90;;;;;;4979971;28;20213;-72
2023/02/12 05:20:18;;;;;;;16.17;9.87;;;2.70;99.90;;;;;;4981837;28;20284;-72
2023/02/12 05:22:44;;;;;;;15.20;8.97;;;2.70;99.90;;;;;;4980832;28;20259;-72
2023/02/12 05:25:10;;;;;;;10.03;6.90;;;2.70;99.90;;;;;;4980922;28;20190;-72
2023/02/12 05:27:36;;;;;;;10.77;7.70;;;2.70;99.90;;;;;;4982794;28;20189;-72
2023/02/12 05:30:04;;;;;;;14.23;7.93;;;2.70;99.90;;;;;;4981046;28;20311;-72
2023/02/12 05:32:31;;;;;;;9.80;6.93;;;2.90;99.90;;;;;;4981779;28;20213;-72
2023/02/12 05:34:57;;;;;;;10.97;7.53;;;3.10;99.90;;;;;;4978310;28;20205;-72
2023/02/12 05:37:23;;;;;;;8.13;6.10;;;3.20;99.90;;;;;;4975474;28;20251;-72
2023/02/12 05:39:49;;;;;;;7.63;5.57;;;3.20;99.90;;;;;;4984028;28;20329;-72
2023/02/12 05:42:16;;;;;;;8.40;5.00;;;3.20;99.90;;;;;;4980265;28;20189;-72
2023/02/12 05:44:42;;;;;;;6.43;4.83;;;3.30;99.90;;;;;;4995510;28;20678;-72
2023/02/12 05:47:08;;;;;;;10.10;5.40;;;3.40;99.90;;;;;;4980999;28;20642;-72
2023/02/12 05:49:34;;;;;;;6.73;5.27;;;3.40;99.90;;;;;;4981593;28;20201;-72
2023/02/12 05:52:01;;;;;;;8.80;5.07;;;3.30;99.90;;;;;;4977430;28;20256;-72
2023/02/12 05:54:27;;;;;;;7.27;4.83;;;3.30;99.90;;;;;;4977923;28;20208;-72
2023/02/12 05:56:55;;;;;;;6.47;4.93;;;3.40;99.90;;;;;;4975620;28;20295;-72
2023/02/12 05:59:22;;;;;;;7.67;5.10;;;3.50;99.90;;;;;;4993117;28;20300;-72
2023/02/12 06:01:51;;;;;;;9.00;5.17;;;3.60;99.90;;;;;;4973402;28;20193;-72
2023/02/12 06:04:25;;;;;;;8.57;5.63;;;3.70;99.90;;;;;;4980826;28;20224;-72
2023/02/12 06:06:54;;;;;;;9.07;5.80;;;3.80;99.90;;;;;;4976847;28;20900;-72
2023/02/12 06:09:22;;;;;;;6.57;5.70;;;3.90;99.90;;;;;;4985564;28;20272;-72
2023/02/12 06:11:48;;;;;;;7.07;5.40;;;4.00;99.90;;;;;;4983928;28;20196;-72
2023/02/12 06:14:18;;;;;;;6.70;4.70;;;4.10;99.90;;;;;;4979925;28;20530;-72
2023/02/12 06:16:50;;;;;;;6.40;5.20;;;4.20;99.90;;;;;;4977952;28;20221;-72
2023/02/12 06:19:17;;;;;;;6.17;4.80;;;4.30;99.90;;;;;;4965029;28;20334;-72
2023/02/12 06:21:46;;;;;;;6.10;4.67;;;4.40;99.90;;;;;;4985215;28;20189;-72
2023/02/12 06:24:15;;;;;;;6.63;5.30;;;4.50;99.90;;;;;;4981121;28;20221;-72
2023/02/12 06:26:42;;;;;;;8.30;4.57;;;4.60;99.90;;;;;;4985457;28;20642;-72
2023/02/12 06:29:08;;;;;;;5.40;4.70;;;4.70;99.90;;;;;;4977515;28;20198;-72
2023/02/12 06:31:37;;;;;;;6.60;4.90;;;4.70;99.90;;;;;;4981882;28;20275;-73
2023/02/12 06:34:07;;;;;;;5.60;4.57;;;4.80;99.90;;;;;;4986830;28;20195;-73
2023/02/12 06:36:40;;;;;;;8.17;4.70;;;4.80;99.90;;;;;;4991097;28;20272;-73
2023/02/12 06:39:07;;;;;;;5.33;4.53;;;4.90;99.90;;;;;;4990939;28;20634;-73
2023/02/12 06:41:34;;;;;;;6.63;4.70;;;5.00;99.90;;;;;;4980751;28;20182;-73
2023/02/12 06:44:00;;;;;;;6.73;4.50;;;5.10;99.90;;;;;;4997010;28;20227;-73
2023/02/12 06:46:26;;;;;;;7.30;4.70;;;5.10;99.90;;;;;;4981298;28;20679;-73
2023/02/12 06:49:00;;;;;;;8.53;4.60;;;5.10;99.90;;;;;;4985088;28;20190;-73
2023/02/12 06:51:28;;;;;;;6.27;4.47;;;5.30;99.90;;;;;;4980898;28;20283;-73
2023/02/12 06:53:55;;;;;;;5.90;4.63;;;5.30;99.90;;;;;;4978660;28;20655;-73
2023/02/12 06:56:23;;;;;;;6.40;4.50;;;5.40;99.90;;;;;;4987283;28;20243;-73
2023/02/12 06:58:57;;;;;;;8.23;4.97;;;5.50;99.90;;;;;;4988692;28;20535;-74
2023/02/12 07:01:27;;;;;;;6.50;4.40;;;5.70;99.90;;;;;;4987998;28;20193;-73
2023/02/12 07:03:57;;;;;;;6.00;4.32;;;6.00;99.90;;;;;;4989388;28;20511;-73
2023/02/12 07:06:26;;;;;;;5.03;4.10;;;6.00;99.90;;;;;;4986858;28;20274;-73
2023/02/12 07:08:53;;;;;;;7.67;4.50;;;6.00;99.90;;;;;;4989321;28;20220;-72
2023/02/12 07:11:28;;;;;;;8.80;4.30;;;5.90;99.90;;;;;;4981808;28;20257;-72
2023/02/12 07:13:55;;;;;;;6.43;4.27;;;5.90;99.90;;;;;;4986768;28;20181;-73
2023/02/12 07:16:22;;;;;;;4.60;3.90;;;6.00;99.90;;;;;;4986914;28;20201;-72
2023/02/12 07:18:49;;;;;;;6.27;4.00;;;6.00;99.90;;;;;;4986945;28;20185;-73
2023/02/12 07:21:17;;;;;;;6.37;3.87;;;6.00;99.90;;;;;;4986946;28;20532;-72
2023/02/12 07:23:52;;;;;;;6.17;3.80;;;6.10;99.90;;;;;;4969630;28;20210;-72
2023/02/12 07:26:20;;;;;;;4.97;4.00;;;6.10;99.90;;;;;;4985380;28;20721;-73
2023/02/12 07:28:48;;;;;;;4.77;4.27;;;6.10;99.90;;;;;;4979814;28;20248;-72
2023/02/12 07:31:20;;;;;;;5.37;3.87;;;6.20;99.90;;;;;;4998777;28;20281;-73
2023/02/12 07:33:47;;;;;;;5.70;4.47;;;6.10;99.90;;;;;;5000677;28;20708;-72
2023/02/12 07:36:19;;;;;;;5.07;4.00;;;6.10;99.90;;;;;;4987541;28;20546;-72
2023/02/12 07:38:46;;;;;;;5.23;4.33;;;6.10;99.90;;;;;;4980031;28;20196;-72
2023/02/12 07:41:17;;;;;;;7.03;4.30;;;6.20;99.90;;;;;;4986451;28;20186;-72
2023/02/12 07:43:47;;;;;;;6.77;4.03;;;6.50;99.90;;;;;;4985708;28;20499;-72
2023/02/12 07:46:29;;;;;;;4.87;4.03;;;7.00;99.90;;;;;;4985670;28;20193;-72
2023/02/12 07:48:58;;;;;;;8.50;4.20;;;7.00;99.90;;;;;;4995245;28;20248;-73
2023/02/12 07:51:26;;;;;;;5.33;3.83;;;6.90;99.90;;;;;;4980344;28;20678;-72
2023/02/12 07:53:56;;;;;;;6.53;4.03;;;6.80;99.90;;;;;;4983941;28;20190;-72
2023/02/12 07:56:29;;;;;;;5.10;4.00;;;6.70;99.90;;;;;;4987015;28;20201;-73
2023/02/12 07:58:56;;;;;;;4.87;4.10;;;6.70;99.90;;;;;;4985333;28;20926;-73
2023/02/12 08:01:40;;;;;;;5.57;4.07;;;6.80;99.90;;;;;;4985085;28;20232;-73
2023/02/12 08:04:12;;;;;;;5.67;4.23;;;7.10;99.90;;;;;;4989448;28;20289;-73
2023/02/12 08:06:43;;;;;;;6.63;4.60;;;7.20;99.90;;;;;;4979066;28;20189;-73
2023/02/12 08:09:15;;;;;;;5.10;3.80;;;7.30;99.90;;;;;;4991845;28;20185;-73
2023/02/12 08:11:45;;;;;;;8.07;4.33;;;7.60;99.90;;;;;;4969331;28;20181;-73
2023/02/12 08:14:15;;;;;;;7.10;4.47;;;7.90;99.90;;;;;;4986754;28;20186;-73
2023/02/12 08:16:44;;;;;;;4.60;3.70;;;7.80;99.90;;;;;;4987859;28;20195;-73
2023/02/12 08:19:11;;;;;;;9.97;3.80;;;7.90;99.90;;;;;;4983333;28;20182;-73
2023/02/12 08:21:38;;;;;;;7.77;4.17;;;8.00;99.90;;;;;;4969680;28;20177;-73
2023/02/12 08:24:05;;;;;;;4.77;3.97;;;8.30;99.90;;;;;;4995506;28;20201;-73
2023/02/12 08:26:37;;;;;;;6.37;4.17;;;8.40;99.90;;;;;;4991701;28;20196;-73
2023/02/12 08:29:15;;;;;;;6.10;4.20;;;8.20;99.90;;;;;;4972281;28;20223;-73
2023/02/12 08:31:50;;;;;;;5.33;3.83;;;8.30;99.90;;;;;;4975928;28;20220;-73
2023/02/12 08:34:23;;;;;;;5.00;3.50;;;8.30;99.90;;;;;;4985135;28;20189;-73
2023/02/12 08:36:55;;;;;;;5.63;3.87;;;8.50;99.90;;;;;;4985790;28;20193;-73
2023/02/12 08:39:25;;;;;;;6.93;3.73;;;8.60;99.90;;;;;;4986546;28;20216;-73
2023/02/12 08:41:54;;;;;;;7.63;4.00;;;8.60;99.90;;;;;;4983986;28;20189;-73
2023/02/12 08:44:21;;;;;;;5.93;3.87;;;8.40;99.90;;;;;;4984141;28;20595;-73
2023/02/12 08:46:50;;;;;;;4.73;3.70;;;8.60;99.90;;;;;;4981960;28;20193;-73
2023/02/12 08:49:28;;;;;;;4.87;4.00;;;8.60;99.90;;;;;;4981355;28;20703;-73
2023/02/12 08:51:57;;;;;;;5.60;4.00;;;8.90;99.90;;;;;;4979056;28;20193;-73
2023/02/12 08:54:27;;;;;;;6.13;4.07;;;9.10;99.90;;;;;;4984807;28;20189;-73
2023/02/12 08:57:00;;;;;;;6.57;4.23;;;9.30;99.90;;;;;;4975852;28;20209;-73
2023/02/12 08:59:27;;;;;;;5.23;3.97;;;9.30;99.90;;;;;;4978903;28;20258;-73
2023/02/12 09:01:53;;;;;;;6.07;4.10;;;9.30;99.90;;;;;;4976897;28;20225;-73
2023/02/12 09:04:26;;;;;;;5.87;4.10;;;9.40;99.90;;;;;;4984691;28;20252;-73
2023/02/12 09:06:53;;;;;;;4.47;3.90;;;9.50;99.90;;;;;;4976576;28;20191;-73
2023/02/12 09:09:20;;;;;;;5.63;3.90;;;9.20;99.90;;;;;;4984776;28;20611;-73
2023/02/12 09:11:47;;;;;;;4.97;3.90;;;9.30;99.90;;;;;;4985518;28;21008;-73
2023/02/12 09:14:17;;;;;;;5.53;4.07;;;9.30;99.90;;;;;;4983124;28;20197;-73
2023/02/12 09:16:43;;;;;;;8.07;4.10;;;9.50;99.90;;;;;;4980828;28;20280;-73
2023/02/12 09:19:14;;;;;;;4.70;3.97;;;9.20;99.90;;;;;;4982219;28;20193;-73
2023/02/12 09:21:41;;;;;;;8.47;4.07;;;9.20;99.90;;;;;;4982122;28;20603;-73
2023/02/12 09:24:08;;;;;;;5.63;3.77;;;9.10;99.90;;;;;;4997072;28;20244;-73
2023/02/12 09:26:34;;;;;;;5.67;3.90;;;9.00;99.90;;;;;;4984331;28;20835;-73
2023/02/12 09:29:03;;;;;;;4.87;3.93;;;9.40;99.90;;;;;;4972615;28;20218;-73
2023/02/12 09:31:32;;;;;;;4.30;3.60;;;9.60;99.90;;;;;;4990800;28;20575;-73
2023/02/12 09:34:03;;;;;;;4.83;3.70;;;9.70;99.90;;;;;;4983207;28;20196;-73
2023/02/12 09:36:29;;;;;;;4.50;3.50;;;9.40;99.90;;;;;;4984596;28;20826;-73
2023/02/12 09:38:58;;;;;;;4.37;3.47;;;9.70;99.90;;;;;;4984037;28;20295;-73
2023/02/12 09:42:10;;;;;;;4.47;3.50;;;10.00;99.90;;;;;;4984711;28;20863;-73
2023/02/12 09:44:58;;;;;;;6.40;3.30;;;10.20;99.90;;;;;;4949422;28;20220;-73
2023/02/12 09:47:47;;;;;;;4.80;3.37;;;10.30;99.90;;;;;;4986746;28;20197;-73
2023/02/12 09:50:39;;;;;;;3.43;3.13;;;10.30;99.90;;;;;;4980356;28;20221;-73
2023/02/12 09:53:13;;;;;;;5.63;3.43;;;10.40;99.90;;;;;;4977804;28;20186;-73
2023/02/12 09:55:40;;;;;;;4.93;3.10;;;10.40;99.90;;;;;;4977429;28;20244;-72
2023/02/12 09:58:34;;;;;;;6.40;3.60;;;10.40;99.90;;;;;;4979331;28;20205;-73
2023/02/12 10:01:11;;;;;;;5.93;3.60;;;10.50;99.90;;;;;;4969575;28;20267;-73
2023/02/12 10:03:37;;;;;;;7.97;3.80;;;10.60;99.90;;;;;;4996221;28;20213;-73
2023/02/12 10:06:12;;;;;;;5.90;3.93;;;10.80;99.90;;;;;;4980409;28;20190;-73
2023/02/12 10:09:03;;;;;;;5.97;3.40;;;10.80;99.90;;;;;;4970043;28;20185;-72
2023/02/12 10:11:39;;;;;;;4.60;3.20;;;10.80;99.90;;;;;;4977828;28;22240;-73
2023/02/12 10:14:49;;;;;;;5.07;3.53;;;10.80;99.90;;;;;;4977811;28;20203;-73
2023/02/12 10:17:44;;;;;;;4.93;3.63;;;10.60;99.90;;;;;;4976004;28;20193;-73
2023/02/12 10:20:18;;;;;;;6.70;3.80;;;10.50;99.90;;;;;;4978526;28;20196;-73
2023/02/12 10:23:14;;;;;;;5.67;3.50;;;10.90;99.90;;;;;;4997703;28;20236;-73
2023/02/12 10:26:21;;;;;;;5.03;3.63;;;10.70;99.90;;;;;;4984208;28;20200;-73
2023/02/12 10:28:50;;;;;;;4.47;3.70;;;10.70;99.90;;;;;;4956490;28;20719;-73
2023/02/12 10:31:24;;;;;;;4.60;3.33;;;10.70;99.90;;;;;;4983023;28;20189;-73
2023/02/12 10:33:53;;;;;;;4.57;4.10;;;10.80;99.90;;;;;;4979095;28;20742;-73
2023/02/12 10:36:44;;;;;;;5.37;3.83;;;11.10;99.90;;;;;;4978828;28;20213;-73
2023/02/12 10:39:11;;;;;;;5.50;3.80;;;10.90;99.90;;;;;;4979621;28;20186;-73
2023/02/12 10:41:48;;;;;;;7.87;3.90;;;11.20;99.90;;;;;;4979659;28;20189;-73
2023/02/12 10:44:14;;;;;;;6.27;4.50;;;11.50;99.90;;;;;;4977970;28;20209;-73
2023/02/12 10:46:41;;;;;;;4.10;3.70;;;11.60;99.90;;;;;;4972792;28;20548;-73
2023/02/12 10:49:12;;;;;;;6.33;3.43;;;11.80;99.90;;;;;;4993610;28;20602;-73
2023/02/12 10:52:17;;;;;;;4.67;3.60;;;11.90;99.90;;;;;;4974411;28;20186;-73
2023/02/12 10:54:48;;;;;;;8.33;3.87;;;12.30;99.90;;;;;;4974340;28;20190;-72
2023/02/12 10:57:27;;;;;;;4.43;3.70;;;12.50;99.90;;;;;;4991434;28;20194;-73
2023/02/12 10:59:57;;;;;;;7.33;3.70;;;12.70;99.90;;;;;;4979919;28;20205;-73
2023/02/12 11:02:33;;;;;;;6.30;4.10;;;12.80;99.90;;;;;;4987861;28;20244;-73
2023/02/12 11:05:22;;;;;;;5.43;3.50;;;12.90;99.90;;;;;;4965362;28;20243;-73
2023/02/12 11:07:50;;;;;;;4.60;3.27;;;12.80;99.90;;;;;;4982879;28;20198;-73
2023/02/12 11:10:40;;;;;;;4.60;3.60;;;12.60;99.90;;;;;;4984287;28;20188;-73
2023/02/12 11:13:27;;;;;;;5.40;3.60;;;12.80;99.90;;;;;;4978808;28;20309;-73
2023/02/12 11:15:54;;;;;;;3.93;3.03;;;12.90;99.90;;;;;;4978392;28;20256;-73
2023/02/12 11:18:28;;;;;;;4.93;3.50;;;12.90;99.90;;;;;;4984247;28;20606;-73
2023/02/12 11:21:02;;;;;;;6.27;3.93;;;13.00;99.90;;;;;;4993015;28;20192;-73
2023/02/12 11:23:38;;;;;;;6.33;3.40;;;13.30;99.90;;;;;;4982088;28;20200;-73
2023/02/12 11:26:26;;;;;;;3.83;3.43;;;13.40;99.90;;;;;;4992287;28;20267;-73
2023/02/12 11:28:54;;;;;;;6.50;3.50;;;13.30;99.90;;;;;;4999888;28;20196;-73
2023/02/12 11:31:33;;;;;;;4.37;3.33;;;12.90;99.90;;;;;;4981667;28;20182;-73
2023/02/12 11:34:11;;;;;;;5.20;3.50;;;12.50;99.90;;;;;;4975891;28;20189;-72
2023/02/12 11:36:48;;;;;;;5.40;3.63;;;12.50;99.90;;;;;;4979456;28;20594;-73
2023/02/12 11:39:23;;;;;;;7.37;3.80;;;12.50;99.90;;;;;;4986542;28;20193;-73
2023/02/12 11:41:57;;;;;;;5.37;3.53;;;12.50;99.90;;;;;;4981623;28;20193;-73
2023/02/12 11:44:36;;;;;;;4.07;3.60;;;12.50;99.90;;;;;;4999430;28;20209;-73
2023/02/12 11:47:10;;;;;;;6.93;3.60;;;12.40;99.90;;;;;;4985830;28;20200;-73
2023/02/12 11:50:07;;;;;;;4.23;3.60;;;12.50;99.90;;;;;;4986973;28;20276;-73
2023/02/12 11:52:39;;;;;;;6.00;4.10;;;12.40;99.90;;;;;;4986923;28;20196;-73
2023/02/12 11:55:26;;;;;;;5.80;4.00;;;12.50;99.90;;;;;;4986368;28;20460;-73
2023/02/12 11:58:04;;;;;;;5.33;3.33;;;12.40;99.90;;;;;;4987750;28;20216;-73
2023/02/12 12:01:11;;;;;;;5.33;4.17;;;12.60;99.90;;;;;;4988207;28;20239;-73
2023/02/12 12:04:13;;;;;;;4.43;3.70;;;12.60;99.90;;;;;;4966162;28;20309;-73
2023/02/12 12:06:47;;;;;;;6.80;4.17;;;12.50;99.90;;;;;;4957992;28;20213;-73
2023/02/12 12:09:43;;;;;;;8.07;3.90;;;12.50;99.90;;;;;;4969027;28;20190;-73
2023/02/12 12:12:39;;;;;;;5.70;3.73;;;12.50;99.90;;;;;;4949087;28;20190;-73
2023/02/12 12:22:02;;;;;;;6.03;4.00;;;12.50;99.90;;;;;;4997953;28;20651;-73
2023/02/12 12:24:47;;;;;;;8.23;4.27;;;12.40;99.90;;;;;;4994336;28;20217;-73
2023/02/12 12:31:05;;;;;;;3.93;3.50;;;12.40;99.90;;;;;;4968302;28;20190;-73
2023/02/12 12:33:48;;;;;;;5.07;3.50;;;12.30;99.90;;;;;;4960912;28;20193;-73
2023/02/12 12:37:01;;;;;;;4.20;3.30;;;12.30;99.90;;;;;;4968221;28;20274;-73
2023/02/12 12:39:50;;;;;;;4.37;3.73;;;12.30;99.90;;;;;;5002054;28;20185;-73
2023/02/12 12:42:36;;;;;;;5.33;4.40;;;11.90;99.90;;;;;;5005264;28;20200;-73
2023/02/12 12:45:51;;;;;;;5.43;4.13;;;11.90;99.90;;;;;;5007060;28;20204;-73
2023/02/12 12:49:03;;;;;;;5.77;3.73;;;12.10;99.90;;;;;;5007019;28;20652;-73
2023/02/12 12:52:05;;;;;;;7.57;4.30;;;12.20;99.90;;;;;;4989091;28;20185;-73
2023/02/12 12:55:02;;;;;;;5.13;3.80;;;12.20;99.90;;;;;;4993197;28;20551;-73
2023/02/12 12:58:09;;;;;;;4.43;3.60;;;12.20;99.90;;;;;;4987008;28;20209;-73
2023/02/12 13:01:11;;;;;;;5.63;4.10;;;12.20;99.90;;;;;;4940408;28;20205;-73
2023/02/12 13:04:01;;;;;;;4.80;4.00;;;12.10;99.90;;;;;;4986810;28;20708;-73
2023/02/12 13:06:58;;;;;;;9.30;4.30;;;12.00;99.90;;;;;;4982551;28;20205;-73
2023/02/12 13:10:01;;;;;;;5.00;4.30;;;11.80;99.90;;;;;;4987039;28;20189;-73
2023/02/12 13:13:02;;;;;;;6.00;3.67;;;12.00;99.90;;;;;;4985365;28;20296;-73
2023/02/12 13:15:54;;;;;;;6.57;4.33;;;11.90;99.90;;;;;;5001425;28;20697;-73
2023/02/12 13:19:18;;;;;;;5.03;3.70;;;11.80;99.90;;;;;;5002598;28;20184;-73
2023/02/12 13:21:53;;;;;;;7.53;3.80;;;11.80;99.90;;;;;;4932998;29;20841;-73
2023/02/12 13:24:43;;;;;;;4.53;4.07;;;11.60;99.90;;;;;;4988509;28;20620;-73
2023/02/12 13:27:25;;;;;;;7.40;4.50;;;11.60;99.90;;;;;;5004329;28;20267;-73
2023/02/12 13:30:19;;;;;;;7.13;4.00;;;11.60;99.90;;;;;;4984975;28;20193;-73
2023/02/12 13:33:16;;;;;;;5.43;4.30;;;11.40;99.90;;;;;;4971313;28;20190;-73
2023/02/12 13:35:48;;;;;;;5.70;3.90;;;11.20;99.90;;;;;;4934726;28;20737;-73
2023/02/12 13:38:26;;;;;;;7.60;4.03;;;11.30;99.90;;;;;;4985241;28;20185;-73
2023/02/12 13:41:03;;;;;;;7.13;3.67;;;11.20;99.90;;;;;;4986415;28;20276;-73
2023/02/12 13:44:06;;;;;;;7.97;3.93;;;11.30;99.90;;;;;;4984839;28;21015;-73
2023/02/12 13:47:01;;;;;;;6.13;4.27;;;11.30;99.90;;;;;;4966421;28;20185;-73
2023/02/12 13:50:15;;;;;;;6.27;4.53;;;10.90;99.90;;;;;;4958398;28;20545;-73
2023/02/12 13:53:25;;;;;;;5.20;4.53;;;10.40;99.90;;;;;;4965377;28;21069;-73